Terminal Aerodrome Forecast
Issued by NWS Wichita, KS

Home | Current Version | Previous Version | Text Only | Print | Product List | Glossary On
Versions: 1 2 3 4 5 6 7 8 9 10 11 12 13 14 15 16
000
FTUS43 KICT 030524
TAFICT
TAF
KICT 030524Z 0306/0406 17015KT P6SM SCT250
     FM031000 15010KT P6SM SCT025
     FM031400 18015G22KT P6SM FEW035
     FM031800 18020G28KT P6SM FEW035
     FM040300 15013KT P6SM BKN035=

USA.gov is the U.S. government's official web portal to all federal, state and local government web resources and services.